Buel, New York
Current Conditions -  °F | °C
As of 11:55 PM on Monday 20 Oct 2014 (Local Time) from KNY0 Reporting Station
Overcast Overcast  
Wind Chill: 43°   Ceiling: 9500
Heat Index: 43°   Visibility: 10mi
Dew Point: 36°   Wind: 3mph
Humidity: 76%   Direction: 50°NE
Pressure: 29.92"   Gusts: NA
Location:  42.8548°N, 74.5942°W
Report Text: KNY0 210355Z AUTO 05003KT 10SM OVC095 06/02 A2992 RMK AO2 T00590020
Loading
Personal Weather Stations






























Interactive Weather Map New forecast layout! Learn more

10-Day Weather Forecast

Advertisements
Track Severe Weather on mobile